Terminal Aerodrome Forecast
Issued by NWS Upton, NY

Current Version | Previous Version | Text Only | Print | Product List | Glossary On
Versions: 1 2 3 4 5 6 7 8 9 10 11 12 13 14 15 16 17 18 19 20 21 22 23 24 25 26
000 FTUS41 KOKX 280535 TAFBDR TAF KBDR 280535Z 2806/2906 34010KT P6SM BKN040 FM281200 35016G24KT P6SM SCT250 FM281800 32011G19KT P6SM SCT070 SCT250 FM282200 33010KT P6SM SKC FM290100 31004KT P6SM SKC=

USA.gov is the U.S. government's official web portal to all federal, state and local government web resources and services.